Time;durP1;ratioP1;P1;durP2;ratioP2;P2;SDS_P1;SDS_P2;PMS_P1;PMS_P2;Temp;Humidity;BMP_temperature;BMP_pressure;BME280_temperature;BME280_humidity;BME280_pressure;Samples;Min_cycle;Max_cycle;Signal;HPM_P1;HPM_P2
2024/01/10 00:02:06;;;;;;;8.27;6.80;;;0.70;98.10;;;;;;5048613;28;20043;-76
2024/01/10 00:04:34;;;;;;;7.45;6.65;;;;;;;;;;5052688;28;20041;-77
2024/01/10 00:07:01;;;;;;;8.93;7.00;;;;;;;;;;5051468;28;20119;-73
2024/01/10 00:09:29;;;;;;;9.00;7.10;;;;;;;;;;5052284;28;20108;-73
2024/01/10 00:12:11;;;;;;;9.68;7.18;;;;;;;;;;5051746;28;20492;-76
2024/01/10 00:14:41;;;;;;;8.57;7.03;;;;;;;;;;5033148;28;20464;-77
2024/01/10 00:17:09;;;;;;;10.02;7.25;;;;;;;;;;5051190;28;20033;-73
2024/01/10 00:19:37;;;;;;;7.95;6.60;;;;;;;;;;5047924;28;20060;-78
2024/01/10 00:22:04;;;;;;;8.23;6.75;;;;;;;;;;5050528;28;20059;-76
2024/01/10 00:24:32;;;;;;;7.88;6.70;;;;;;;;;;5051322;28;20043;-76
2024/01/10 00:27:00;;;;;;;7.82;6.88;;;;;;;;;;5048507;28;20108;-75
2024/01/10 00:29:27;;;;;;;8.27;6.43;;;0.70;98.10;;;;;;5043048;28;20025;-75
2024/01/10 00:31:59;;;;;;;10.38;7.68;;;0.50;98.20;;;;;;5052081;28;20472;-76
2024/01/10 00:34:26;;;;;;;7.78;6.53;;;0.50;98.40;;;;;;5043595;28;20116;-74
2024/01/10 00:36:54;;;;;;;8.73;6.68;;;0.60;98.40;;;;;;5051995;28;20119;-72
2024/01/10 00:39:21;;;;;;;8.38;6.80;;;0.50;98.10;;;;;;5047263;28;20051;-78
2024/01/10 00:41:48;;;;;;;8.02;6.80;;;0.40;98.40;;;;;;5052032;28;20491;-76
2024/01/10 00:44:15;;;;;;;8.35;7.15;;;0.40;98.10;;;;;;5051485;28;20036;-76
2024/01/10 00:46:42;;;;;;;9.27;6.80;;;0.50;98.60;;;;;;5049411;28;20033;-75
2024/01/10 00:49:10;;;;;;;9.73;6.80;;;0.40;98.60;;;;;;5051154;28;20057;-75
2024/01/10 00:51:37;;;;;;;73.90;30.95;;;0.40;98.60;;;;;;5047151;28;20061;-71
2024/01/10 00:54:04;;;;;;;23.27;13.55;;;0.80;99.30;;;;;;5049266;28;20448;-74
2024/01/10 00:56:32;;;;;;;18.80;10.68;;;1.00;98.60;;;;;;5049176;28;20052;-74
2024/01/10 00:58:59;;;;;;;8.43;6.82;;;1.00;98.00;;;;;;5051341;28;20124;-73
2024/01/10 01:01:26;;;;;;;8.07;6.90;;;0.80;98.10;;;;;;5050237;28;20380;-74
2024/01/10 01:03:53;;;;;;;9.18;6.60;;;0.80;98.00;;;;;;5045260;28;20052;-76
2024/01/10 01:06:21;;;;;;;8.50;7.10;;;0.50;98.10;;;;;;5051477;28;20488;-78
2024/01/10 01:08:48;;;;;;;8.50;6.78;;;;;;;;;;5050076;28;20036;-78
2024/01/10 01:11:16;;;;;;;12.15;6.82;;;0.50;98.10;;;;;;5047314;28;20127;-72
2024/01/10 01:13:43;;;;;;;8.75;7.00;;;;;;;;;;5029280;28;20038;-78
2024/01/10 01:16:29;;;;;;;8.55;6.60;;;0.40;98.50;;;;;;5047213;28;20133;-76
2024/01/10 01:18:57;;;;;;;9.15;7.50;;;;;;;;;;5048303;28;20102;-75
2024/01/10 01:21:25;;;;;;;8.77;7.10;;;;;;;;;;5047507;28;20044;-78
2024/01/10 01:23:52;;;;;;;9.60;6.18;;;;;;;;;;5045158;28;20132;-76
2024/01/10 01:26:20;;;;;;;9.35;6.93;;;;;;;;;;5044576;28;20021;-79
2024/01/10 01:28:48;;;;;;;9.07;6.88;;;;;;;;;;5050223;28;20037;-72
2024/01/10 01:31:15;;;;;;;7.57;6.63;;;;;;;;;;5047796;28;20049;-74
2024/01/10 01:34:00;;;;;;;8.85;6.95;;;0.40;98.30;;;;;;5028924;28;20031;-76
2024/01/10 01:36:45;;;;;;;8.40;6.75;;;;;;;;;;5048468;28;20025;-77
2024/01/10 01:39:15;;;;;;;7.97;6.22;;;0.40;98.10;;;;;;5040592;28;20140;-78
2024/01/10 01:41:43;;;;;;;9.15;7.07;;;0.30;98.40;;;;;;5049552;28;20052;-78
2024/01/10 01:44:10;;;;;;;6.72;5.80;;;0.20;98.40;;;;;;5047342;28;20029;-76
2024/01/10 01:46:41;;;;;;;6.68;5.93;;;0.10;98.30;;;;;;5027446;28;20042;-74
2024/01/10 01:49:10;;;;;;;10.00;6.97;;;0.10;98.50;;;;;;5049899;28;20029;-75
2024/01/10 01:51:40;;;;;;;9.05;7.18;;;0.10;98.60;;;;;;5050962;28;20047;-77
2024/01/10 01:54:11;;;;;;;8.30;6.53;;;0.20;98.60;;;;;;5050077;28;20025;-77
2024/01/10 01:56:39;;;;;;;7.60;6.80;;;0.20;98.70;;;;;;5040059;28;20045;-75
2024/01/10 01:59:08;;;;;;;7.63;6.82;;;0.20;98.70;;;;;;5031223;28;20056;-76
2024/01/10 02:01:35;;;;;;;9.13;6.88;;;0.20;98.80;;;;;;5050378;28;20110;-75
2024/01/10 02:04:03;;;;;;;8.15;6.80;;;0.30;98.40;;;;;;5031927;28;20067;-75
2024/01/10 02:06:30;;;;;;;9.50;6.80;;;0.40;98.50;;;;;;5030523;28;20504;-74
2024/01/10 02:08:58;;;;;;;8.65;7.07;;;0.20;98.60;;;;;;5031633;28;20040;-74
2024/01/10 02:11:26;;;;;;;8.55;7.05;;;0.30;98.30;;;;;;5050900;28;20399;-76
2024/01/10 02:13:56;;;;;;;8.48;7.20;;;0.30;98.50;;;;;;5049349;28;20095;-74
2024/01/10 02:16:24;;;;;;;7.82;7.00;;;0.20;98.60;;;;;;5050209;28;20080;-72
2024/01/10 02:18:52;;;;;;;7.22;6.45;;;;;;;;;;5031000;28;20046;-73
2024/01/10 02:21:22;;;;;;;8.82;6.90;;;0.10;98.80;;;;;;5048065;28;20429;-74
2024/01/10 02:23:50;;;;;;;7.90;6.88;;;0.10;98.60;;;;;;5048381;28;20094;-73
2024/01/10 02:26:17;;;;;;;7.95;6.53;;;0.20;98.50;;;;;;5046607;28;20053;-75
2024/01/10 02:29:02;;;;;;;9.95;7.35;;;0.20;98.40;;;;;;5045090;28;20021;-74
2024/01/10 02:31:46;;;;;;;8.27;6.68;;;0.20;98.70;;;;;;5048134;28;21133;-73
2024/01/10 02:34:14;;;;;;;14.80;7.20;;;0.20;98.70;;;;;;5047722;28;20494;-74
2024/01/10 02:36:41;;;;;;;9.23;6.90;;;0.00;98.70;;;;;;5047149;28;20111;-73
2024/01/10 02:39:08;;;;;;;8.02;6.60;;;0.10;98.70;;;;;;5045684;28;20047;-76
2024/01/10 02:41:36;;;;;;;9.10;6.80;;;0.10;98.90;;;;;;5047112;28;20029;-77
2024/01/10 02:44:03;;;;;;;8.38;6.78;;;0.10;98.90;;;;;;5047226;28;20068;-76
2024/01/10 02:46:31;;;;;;;8.55;6.85;;;0.10;98.90;;;;;;5048518;28;20033;-74
2024/01/10 02:49:16;;;;;;;8.07;7.22;;;0.20;98.80;;;;;;5043961;28;20043;-75
2024/01/10 02:52:01;;;;;;;7.65;6.68;;;0.10;99.00;;;;;;5044519;28;20056;-73
2024/01/10 02:54:29;;;;;;;8.05;6.78;;;0.10;98.70;;;;;;5020797;28;20365;-78
2024/01/10 02:56:56;;;;;;;9.80;7.30;;;0.10;98.80;;;;;;5031189;28;20040;-76
2024/01/10 02:59:23;;;;;;;9.32;6.88;;;0.10;98.90;;;;;;5031703;28;20041;-73
2024/01/10 03:01:50;;;;;;;7.60;6.82;;;0.10;98.80;;;;;;5048118;28;20040;-74
2024/01/10 03:04:35;;;;;;;9.00;6.70;;;0.20;98.90;;;;;;5044993;28;20099;-74
2024/01/10 03:07:02;;;;;;;7.85;7.03;;;0.30;98.70;;;;;;5049277;28;20040;-76
2024/01/10 03:09:30;;;;;;;6.75;6.05;;;0.20;98.80;;;;;;5041682;28;20354;-76
2024/01/10 03:11:57;;;;;;;8.27;7.00;;;0.10;98.80;;;;;;5051855;28;20065;-76
2024/01/10 03:14:24;;;;;;;8.23;6.85;;;0.00;99.00;;;;;;5025676;28;20057;-75
2024/01/10 03:16:53;;;;;;;7.40;6.60;;;0.00;99.10;;;;;;5050475;28;20075;-73
2024/01/10 03:19:20;;;;;;;8.48;7.28;;;0.20;98.80;;;;;;5051640;28;20033;-77
2024/01/10 03:21:47;;;;;;;10.70;7.50;;;0.10;98.80;;;;;;5049741;28;20530;-75
2024/01/10 03:24:14;;;;;;;8.32;7.13;;;0.00;98.90;;;;;;5048668;28;20132;-71
2024/01/10 03:26:42;;;;;;;9.50;6.95;;;-0.10;99.10;;;;;;5052980;28;20051;-72
2024/01/10 03:29:09;;;;;;;8.20;7.15;;;0.10;99.10;;;;;;5031622;28;20080;-73
2024/01/10 03:31:37;;;;;;;8.05;6.68;;;;;;;;;;5050546;28;20029;-73
2024/01/10 03:34:04;;;;;;;8.98;6.78;;;0.00;99.00;;;;;;5035081;28;20041;-73
2024/01/10 03:36:32;;;;;;;9.98;6.88;;;0.20;99.00;;;;;;5045960;28;20039;-72
2024/01/10 03:38:59;;;;;;;8.23;7.20;;;0.00;98.80;;;;;;5047565;28;20078;-75
2024/01/10 03:41:26;;;;;;;8.70;6.85;;;;;;;;;;5053579;28;20049;-72
2024/01/10 03:43:54;;;;;;;9.88;7.32;;;;;;;;;;5049369;28;20436;-75
2024/01/10 03:46:22;;;;;;;9.35;8.00;;;;;;;;;;5051073;28;20114;-73
2024/01/10 03:48:51;;;;;;;9.35;7.32;;;;;;;;;;5050457;28;20036;-70
2024/01/10 03:51:19;;;;;;;9.53;7.67;;;0.10;99.10;;;;;;5046435;28;20136;-70
2024/01/10 03:53:46;;;;;;;10.30;7.50;;;0.10;99.00;;;;;;5031481;28;20266;-73
2024/01/10 03:56:14;;;;;;;11.23;7.82;;;0.10;99.00;;;;;;5052290;28;20056;-72
2024/01/10 03:58:41;;;;;;;7.65;6.82;;;;;;;;;;5051842;28;20106;-71
2024/01/10 04:01:09;;;;;;;8.63;7.72;;;;;;;;;;5052431;28;20040;-73
2024/01/10 04:03:38;;;;;;;9.82;7.28;;;0.10;99.40;;;;;;5052853;28;20040;-73
2024/01/10 04:06:05;;;;;;;10.00;7.38;;;;;;;;;;5051879;28;20124;-75
2024/01/10 04:08:33;;;;;;;7.63;6.80;;;;;;;;;;5048082;28;20033;-71
2024/01/10 04:11:03;;;;;;;9.68;7.32;;;0.10;99.00;;;;;;5050471;28;20098;-73
2024/01/10 04:13:30;;;;;;;8.88;7.32;;;;;;;;;;5050993;28;20037;-74
2024/01/10 04:15:58;;;;;;;8.73;6.85;;;-0.10;99.40;;;;;;5048901;28;20029;-74
2024/01/10 04:18:25;;;;;;;7.90;7.10;;;-0.20;99.40;;;;;;5049612;28;20508;-73
2024/01/10 04:21:09;;;;;;;9.55;7.35;;;-0.10;99.60;;;;;;5015997;28;20047;-74
2024/01/10 04:23:37;;;;;;;9.82;6.75;;;;;;;;;;5045932;28;20029;-75
2024/01/10 04:26:04;;;;;;;8.70;6.82;;;-0.20;99.50;;;;;;5049437;28;20056;-73
2024/01/10 04:28:32;;;;;;;8.25;7.45;;;-0.20;99.60;;;;;;5043766;28;20376;-73
2024/01/10 04:30:59;;;;;;;9.73;7.57;;;-0.20;99.90;;;;;;5049982;28;20037;-72
2024/01/10 04:33:26;;;;;;;8.85;6.45;;;-0.10;99.90;;;;;;5050980;28;20520;-74
2024/01/10 04:35:54;;;;;;;9.50;7.88;;;-0.10;99.60;;;;;;5051224;28;20431;-73
2024/01/10 04:38:21;;;;;;;9.25;7.03;;;-0.10;99.90;;;;;;5050454;28;20106;-73
2024/01/10 04:40:48;;;;;;;9.80;7.53;;;0.00;99.80;;;;;;5033001;28;20567;-73
2024/01/10 04:43:16;;;;;;;7.78;6.97;;;-0.10;99.80;;;;;;5051278;28;20044;-71
2024/01/10 04:45:43;;;;;;;8.57;6.85;;;;;;;;;;5017638;28;20391;-74
2024/01/10 04:48:11;;;;;;;9.88;7.55;;;-0.20;99.90;;;;;;5033848;28;20033;-76
2024/01/10 04:50:38;;;;;;;9.18;6.80;;;;;;;;;;5051211;28;20118;-71
2024/01/10 04:53:05;;;;;;;8.38;6.78;;;-0.20;99.70;;;;;;5048112;28;20380;-73
2024/01/10 04:55:33;;;;;;;8.23;7.03;;;-0.10;99.90;;;;;;5046264;28;20036;-74
2024/01/10 04:58:00;;;;;;;9.32;7.60;;;-0.10;99.80;;;;;;5050595;28;20032;-74
2024/01/10 05:00:28;;;;;;;11.63;7.80;;;-0.10;99.80;;;;;;5026420;28;20036;-76
2024/01/10 05:02:55;;;;;;;11.93;8.25;;;-0.10;99.90;;;;;;5048943;28;20452;-74
2024/01/10 05:05:40;;;;;;;12.68;7.32;;;;;;;;;;5047707;28;20024;-72
2024/01/10 05:08:08;;;;;;;6.68;5.82;;;;;;;;;;5050723;28;20029;-73
2024/01/10 05:10:35;;;;;;;8.77;7.00;;;-0.20;99.90;;;;;;5051023;28;20041;-72
2024/01/10 05:13:03;;;;;;;9.63;7.25;;;-0.30;99.90;;;;;;5030324;28;20048;-74
2024/01/10 05:15:48;;;;;;;9.73;7.35;;;-0.30;99.90;;;;;;5045892;28;20029;-74
2024/01/10 05:18:17;;;;;;;11.68;7.88;;;-0.30;99.90;;;;;;5014738;28;20316;-74
2024/01/10 05:20:44;;;;;;;8.27;7.40;;;-0.20;99.90;;;;;;5049075;28;20036;-74
2024/01/10 05:23:11;;;;;;;10.00;7.22;;;-0.10;99.90;;;;;;5043521;28;20076;-73
2024/01/10 05:25:39;;;;;;;8.23;6.38;;;-0.30;99.90;;;;;;5047626;28;20508;-75
2024/01/10 05:28:06;;;;;;;10.88;7.10;;;-0.40;99.90;;;;;;5050906;28;20037;-73
2024/01/10 05:30:33;;;;;;;10.50;7.80;;;-0.40;99.90;;;;;;5046397;28;20044;-75
2024/01/10 05:33:01;;;;;;;11.18;7.82;;;-0.20;99.90;;;;;;5049742;28;20025;-74
2024/01/10 05:35:28;;;;;;;8.50;6.65;;;-0.10;99.90;;;;;;5050458;28;20045;-72
2024/01/10 05:37:56;;;;;;;7.72;6.70;;;0.20;99.90;;;;;;5030560;28;20091;-74
2024/01/10 05:40:24;;;;;;;9.57;7.28;;;0.00;99.90;;;;;;5049504;28;20083;-72
2024/01/10 05:42:51;;;;;;;9.32;7.95;;;-0.10;99.90;;;;;;5048007;28;20037;-77
2024/01/10 05:45:18;;;;;;;10.02;6.90;;;0.00;99.90;;;;;;5029083;28;20476;-73
2024/01/10 05:47:45;;;;;;;8.55;6.93;;;0.00;99.90;;;;;;5049704;28;20502;-72
2024/01/10 05:50:13;;;;;;;8.35;7.28;;;0.00;99.90;;;;;;5043932;28;20112;-74
2024/01/10 05:52:40;;;;;;;8.23;6.88;;;0.00;99.90;;;;;;5049610;28;20033;-71
2024/01/10 05:55:08;;;;;;;8.07;6.90;;;0.10;99.90;;;;;;5045693;28;20033;-74
2024/01/10 05:57:36;;;;;;;8.85;7.63;;;0.30;99.90;;;;;;5038862;28;20051;-76
2024/01/10 06:00:09;;;;;;;9.93;7.40;;;0.30;99.90;;;;;;5048711;28;20095;-76
2024/01/10 06:02:53;;;;;;;23.45;14.27;;;0.10;99.90;;;;;;5031520;28;20029;-74
2024/01/10 06:05:21;;;;;;;9.40;8.18;;;0.30;99.90;;;;;;5046939;28;20033;-73
2024/01/10 06:07:49;;;;;;;11.43;7.85;;;0.20;99.80;;;;;;5045657;28;20107;-76
2024/01/10 06:10:34;;;;;;;22.27;14.18;;;0.00;99.90;;;;;;5030614;28;20042;-77
2024/01/10 06:13:04;;;;;;;9.43;7.97;;;0.00;99.90;;;;;;5046347;28;20439;-72
2024/01/10 06:15:31;;;;;;;29.77;16.20;;;-0.10;99.90;;;;;;5049881;28;20350;-74
2024/01/10 06:17:59;;;;;;;30.52;15.60;;;0.10;99.90;;;;;;5046176;28;20072;-74
2024/01/10 06:20:26;;;;;;;18.15;10.95;;;0.00;99.90;;;;;;5025070;28;20089;-74
2024/01/10 06:22:54;;;;;;;12.80;7.85;;;0.10;99.90;;;;;;5047375;28;20461;-74
2024/01/10 06:25:22;;;;;;;9.90;7.97;;;-0.10;99.90;;;;;;5041783;28;20038;-74
2024/01/10 06:27:49;;;;;;;10.10;8.15;;;-0.10;99.90;;;;;;5029519;28;20045;-77
2024/01/10 06:30:16;;;;;;;10.43;7.88;;;-0.10;99.90;;;;;;5042922;28;20037;-75
2024/01/10 06:32:45;;;;;;;9.80;7.85;;;0.10;99.90;;;;;;5048251;28;20040;-73
2024/01/10 06:35:12;;;;;;;9.90;7.53;;;-0.10;99.90;;;;;;5046436;28;20024;-71
2024/01/10 06:37:40;;;;;;;9.48;7.80;;;0.00;99.90;;;;;;5046839;28;20395;-77
2024/01/10 06:40:08;;;;;;;8.57;7.28;;;-0.10;99.90;;;;;;5047126;28;20111;-72
2024/01/10 06:42:37;;;;;;;9.82;7.50;;;-0.10;99.90;;;;;;5045122;28;20411;-76
2024/01/10 06:45:07;;;;;;;9.57;8.02;;;-0.10;99.90;;;;;;5038510;28;20037;-73
2024/01/10 06:47:35;;;;;;;9.93;8.10;;;-0.10;99.90;;;;;;5025351;28;20112;-73
2024/01/10 06:50:05;;;;;;;10.02;7.80;;;0.00;99.90;;;;;;5048487;28;20371;-72
2024/01/10 06:52:32;;;;;;;9.93;7.95;;;0.00;99.90;;;;;;5044644;28;20123;-73
2024/01/10 06:55:00;;;;;;;9.20;7.32;;;0.10;99.90;;;;;;5046777;28;20103;-74
2024/01/10 06:57:27;;;;;;;9.60;7.68;;;0.10;99.80;;;;;;5048920;28;20112;-73
2024/01/10 06:59:54;;;;;;;11.18;7.75;;;0.30;99.90;;;;;;5042282;28;20044;-74
2024/01/10 07:02:23;;;;;;;11.25;8.02;;;0.30;99.90;;;;;;5040278;28;20137;-73
2024/01/10 07:04:50;;;;;;;14.45;9.05;;;0.30;99.90;;;;;;5047547;28;20041;-73
2024/01/10 07:07:17;;;;;;;16.05;9.05;;;0.50;99.90;;;;;;5045238;28;20032;-72
2024/01/10 07:09:45;;;;;;;12.93;8.13;;;0.50;99.90;;;;;;5048363;28;20476;-73
2024/01/10 07:12:12;;;;;;;10.35;7.78;;;0.60;99.90;;;;;;5048019;28;20060;-73
2024/01/10 07:14:39;;;;;;;9.63;7.65;;;0.70;99.90;;;;;;5030968;28;20037;-73
2024/01/10 07:17:07;;;;;;;11.13;8.48;;;0.70;99.90;;;;;;5044978;28;20037;-73
2024/01/10 07:19:34;;;;;;;12.02;8.50;;;0.80;99.90;;;;;;5043324;28;20091;-73
2024/01/10 07:22:02;;;;;;;12.77;8.35;;;0.70;99.90;;;;;;5045516;28;20036;-73
2024/01/10 07:24:29;;;;;;;11.23;8.57;;;0.70;99.90;;;;;;5045647;28;20108;-72
2024/01/10 07:26:57;;;;;;;13.75;8.48;;;0.80;99.90;;;;;;5043997;28;20045;-74
2024/01/10 07:29:24;;;;;;;11.07;8.00;;;0.80;99.90;;;;;;5041816;28;20037;-73
2024/01/10 07:31:52;;;;;;;16.02;8.68;;;0.80;99.90;;;;;;5044104;28;20087;-73
2024/01/10 07:34:21;;;;;;;13.52;8.45;;;0.90;99.90;;;;;;5030401;28;20780;-73
2024/01/10 07:36:48;;;;;;;11.25;8.15;;;0.90;99.90;;;;;;5048291;28;20494;-74
2024/01/10 07:39:18;;;;;;;17.33;8.68;;;0.80;99.80;;;;;;5048934;28;20403;-73
2024/01/10 07:41:45;;;;;;;10.63;8.50;;;0.90;99.80;;;;;;5048904;28;20086;-74
2024/01/10 07:44:12;;;;;;;13.20;8.40;;;0.90;99.70;;;;;;5044798;28;20065;-74
2024/01/10 07:46:40;;;;;;;14.82;7.90;;;0.90;99.80;;;;;;5048706;28;20074;-74
2024/01/10 07:49:07;;;;;;;12.30;8.00;;;0.90;99.80;;;;;;5026968;28;20040;-73
2024/01/10 07:51:35;;;;;;;11.02;8.15;;;1.00;99.60;;;;;;5044246;28;20048;-73
2024/01/10 07:54:02;;;;;;;13.43;8.18;;;1.00;99.60;;;;;;5046561;28;20504;-74
2024/01/10 07:56:30;;;;;;;11.50;8.90;;;0.90;99.90;;;;;;5050108;28;20033;-74
2024/01/10 07:58:57;;;;;;;10.13;8.57;;;0.80;99.90;;;;;;5052574;28;20070;-74
2024/01/10 08:01:24;;;;;;;12.05;8.52;;;0.90;99.90;;;;;;5051953;28;20052;-74
2024/01/10 08:04:09;;;;;;;10.48;8.70;;;0.90;99.80;;;;;;5048662;28;20021;-73
2024/01/10 08:06:39;;;;;;;12.45;9.13;;;0.80;99.90;;;;;;5034878;28;20053;-74
2024/01/10 08:09:06;;;;;;;18.30;9.10;;;0.90;99.70;;;;;;5032065;28;20128;-74
2024/01/10 08:11:34;;;;;;;9.88;7.95;;;1.00;99.80;;;;;;5052538;28;20373;-73
2024/01/10 08:14:01;;;;;;;11.32;8.52;;;1.00;99.50;;;;;;5052285;28;20064;-74
2024/01/10 08:16:29;;;;;;;12.23;9.23;;;0.90;99.60;;;;;;5032337;28;20487;-74
2024/01/10 08:18:56;;;;;;;22.10;10.30;;;1.00;99.60;;;;;;5045606;28;20045;-73
2024/01/10 08:21:23;;;;;;;34.40;17.17;;;1.20;99.90;;;;;;5052338;28;20025;-73
2024/01/10 08:23:51;;;;;;;16.90;10.50;;;1.40;99.80;;;;;;5028896;28;21295;-73
2024/01/10 08:26:18;;;;;;;13.07;9.63;;;1.30;99.50;;;;;;5033798;28;20044;-74
2024/01/10 08:28:46;;;;;;;15.15;10.07;;;1.60;99.40;;;;;;5051878;28;20441;-75
2024/01/10 08:31:16;;;;;;;9.73;8.60;;;1.40;99.00;;;;;;5045731;28;20429;-74
2024/01/10 08:33:45;;;;;;;15.57;9.65;;;1.60;98.90;;;;;;5051374;28;20361;-74
2024/01/10 08:36:14;;;;;;;13.68;8.68;;;1.50;98.90;;;;;;5044688;28;20047;-74
2024/01/10 08:38:41;;;;;;;12.38;9.40;;;1.60;98.70;;;;;;5051910;28;20041;-74
2024/01/10 08:41:11;;;;;;;13.73;9.15;;;1.50;98.90;;;;;;5051585;28;20456;-73
2024/01/10 08:43:39;;;;;;;14.82;10.13;;;1.50;98.90;;;;;;5048221;28;20086;-73
2024/01/10 08:46:08;;;;;;;15.65;10.57;;;1.60;98.80;;;;;;5050954;28;20037;-73
2024/01/10 08:48:36;;;;;;;16.08;10.52;;;1.60;98.60;;;;;;5049926;28;20041;-73
2024/01/10 08:51:04;;;;;;;13.30;9.88;;;1.60;98.60;;;;;;5048461;28;20029;-73
2024/01/10 08:53:32;;;;;;;14.52;9.50;;;1.70;98.80;;;;;;5050174;28;20118;-74
2024/01/10 08:55:59;;;;;;;16.75;9.35;;;1.60;98.60;;;;;;5051271;28;20159;-74
2024/01/10 08:58:27;;;;;;;10.88;8.60;;;1.60;98.60;;;;;;5051417;28;20033;-74
2024/01/10 09:00:54;;;;;;;11.25;8.70;;;1.60;98.50;;;;;;5050451;28;20043;-74
2024/01/10 09:03:21;;;;;;;11.25;8.90;;;1.50;98.60;;;;;;5033570;28;20068;-74
2024/01/10 09:05:49;;;;;;;12.00;9.43;;;1.40;98.90;;;;;;5051023;28;20037;-72
2024/01/10 09:08:31;;;;;;;14.52;9.48;;;1.60;98.70;;;;;;5050252;28;20037;-73
2024/01/10 09:10:58;;;;;;;15.10;8.82;;;1.60;98.50;;;;;;5014607;28;20040;-74
2024/01/10 09:13:26;;;;;;;10.98;8.95;;;1.60;98.50;;;;;;5049841;28;20518;-72
2024/01/10 09:15:53;;;;;;;11.65;8.20;;;1.40;98.80;;;;;;5050675;28;20036;-72
2024/01/10 09:18:20;;;;;;;14.02;9.48;;;1.50;98.60;;;;;;5050751;28;20512;-73
2024/01/10 09:20:48;;;;;;;17.05;12.45;;;1.60;98.60;;;;;;5032921;28;20440;-73
2024/01/10 09:23:15;;;;;;;13.18;9.43;;;1.60;98.90;;;;;;5050684;28;20049;-73
2024/01/10 09:25:43;;;;;;;13.95;10.40;;;1.50;98.90;;;;;;5047588;28;20523;-73
2024/01/10 09:28:10;;;;;;;14.85;9.27;;;1.60;98.90;;;;;;5050497;28;20036;-73
2024/01/10 09:30:37;;;;;;;11.45;8.80;;;1.70;98.40;;;;;;5043093;28;20115;-72
2024/01/10 09:33:08;;;;;;;11.52;9.15;;;1.60;98.60;;;;;;5046625;28;20029;-73
2024/01/10 09:35:36;;;;;;;12.23;8.80;;;1.70;98.80;;;;;;5049238;28;20407;-72
2024/01/10 09:38:03;;;;;;;13.27;9.48;;;1.70;98.60;;;;;;5050122;28;20049;-75
2024/01/10 09:40:31;;;;;;;13.27;9.25;;;1.70;98.80;;;;;;5044213;28;20384;-73
2024/01/10 09:42:58;;;;;;;11.63;9.45;;;1.80;98.40;;;;;;5032394;28;20055;-74
2024/01/10 09:45:28;;;;;;;11.73;9.07;;;2.00;98.40;;;;;;5011681;28;20045;-74
2024/01/10 09:47:58;;;;;;;13.00;9.60;;;2.00;98.20;;;;;;5033193;28;20049;-73
2024/01/10 09:50:26;;;;;;;;;;;2.00;98.00;;;;;;5032465;28;20278;-74
2024/01/10 09:53:09;;;;;;;16.42;9.88;;;1.90;98.00;;;;;;5047941;28;19970;-74
2024/01/10 09:55:37;;;;;;;19.33;9.88;;;1.90;98.20;;;;;;5046309;28;20029;-75
2024/01/10 09:58:08;;;;;;;15.95;10.38;;;2.00;98.00;;;;;;5047800;28;20389;-73
2024/01/10 10:00:36;;;;;;;18.83;13.77;;;2.10;98.20;;;;;;5045002;28;20073;-74
2024/01/10 10:03:11;;;;;;;16.20;10.98;;;2.10;98.30;;;;;;5029763;28;20337;-72
2024/01/10 10:05:40;;;;;;;12.57;9.45;;;2.40;98.10;;;;;;5026438;28;20033;-74
2024/01/10 10:08:10;;;;;;;14.20;10.17;;;2.30;97.80;;;;;;5047892;28;20040;-73
2024/01/10 10:10:42;;;;;;;14.05;10.82;;;2.30;97.60;;;;;;5046148;28;20060;-74
2024/01/10 10:13:17;;;;;;;14.38;9.90;;;2.30;97.70;;;;;;5044517;28;20388;-71
2024/01/10 10:15:56;;;;;;;17.17;10.50;;;2.30;97.50;;;;;;5045936;28;20483;-74
2024/01/10 10:18:23;;;;;;;13.27;9.57;;;2.40;97.70;;;;;;5049614;28;20037;-73
2024/01/10 10:21:06;;;;;;;12.75;9.27;;;2.50;97.60;;;;;;5045689;28;20056;-73
2024/01/10 10:23:33;;;;;;;17.35;9.73;;;2.60;97.60;;;;;;5048973;28;20049;-74
2024/01/10 10:26:10;;;;;;;12.05;9.57;;;2.40;97.60;;;;;;5047857;28;20040;-73
2024/01/10 10:28:39;;;;;;;12.40;9.00;;;2.40;97.20;;;;;;5048737;28;20092;-74
2024/01/10 10:31:06;;;;;;;14.13;9.85;;;2.50;97.40;;;;;;5031343;28;20360;-73
2024/01/10 10:33:34;;;;;;;13.63;9.75;;;;;;;;;;5027854;28;20053;-75
2024/01/10 10:36:03;;;;;;;14.32;10.70;;;;;;;;;;5045856;28;20040;-75
2024/01/10 10:38:30;;;;;;;15.40;10.25;;;;;;;;;;5043629;28;20107;-74
2024/01/10 10:41:00;;;;;;;15.10;9.70;;;;;;;;;;5045270;28;20043;-73
2024/01/10 10:43:31;;;;;;;12.10;9.70;;;;;;;;;;5046847;28;20056;-74
2024/01/10 10:45:59;;;;;;;13.57;9.75;;;;;;;;;;5048494;28;20064;-73
2024/01/10 10:48:27;;;;;;;14.73;10.43;;;;;;;;;;5041504;28;20037;-74
2024/01/10 10:51:06;;;;;;;14.35;10.48;;;;;;;;;;5048330;28;20037;-76
2024/01/10 10:53:35;;;;;;;14.18;9.98;;;;;;;;;;5043734;28;20404;-74
2024/01/10 10:56:07;;;;;;;13.80;10.55;;;;;;;;;;5049244;28;20037;-75
2024/01/10 10:58:42;;;;;;;19.40;10.77;;;;;;;;;;5029152;28;20045;-73
2024/01/10 11:01:11;;;;;;;16.88;10.70;;;;;;;;;;5025001;28;20029;-73
2024/01/10 11:03:40;;;;;;;14.00;9.93;;;;;;;;;;5044885;28;20490;-74
2024/01/10 11:06:08;;;;;;;12.73;10.10;;;;;;;;;;5048239;28;20032;-74
2024/01/10 11:08:43;;;;;;;13.57;10.43;;;;;;;;;;5048496;28;20087;-75
2024/01/10 11:11:29;;;;;;;14.50;10.90;;;;;;;;;;5040324;28;20492;-74
2024/01/10 11:14:15;;;;;;;14.45;10.40;;;;;;;;;;5044607;28;20086;-75
2024/01/10 11:17:33;;;;;;;15.80;10.80;;;2.60;97.20;;;;;;5027984;28;20404;-75
2024/01/10 11:20:20;;;;;;;14.07;10.68;;;;;;;;;;5007882;28;20042;-73
2024/01/10 11:22:47;;;;;;;16.15;10.23;;;;;;;;;;5042799;28;20041;-73
2024/01/10 11:25:15;;;;;;;14.55;10.50;;;;;;;;;;5027547;28;20060;-73
2024/01/10 11:27:43;;;;;;;14.55;10.88;;;;;;;;;;5036250;28;20041;-74
2024/01/10 11:30:11;;;;;;;17.65;10.85;;;;;;;;;;5024113;28;20025;-76
2024/01/10 11:32:39;;;;;;;15.57;9.80;;;;;;;;;;5040325;28;20444;-74
2024/01/10 11:35:15;;;;;;;14.20;10.60;;;;;;;;;;5044264;28;20044;-74
2024/01/10 11:37:44;;;;;;;13.98;10.38;;;;;;;;;;5039268;28;20063;-75
2024/01/10 11:40:15;;;;;;;18.13;11.10;;;;;;;;;;5033372;28;20041;-73
2024/01/10 11:42:44;;;;;;;16.48;10.07;;;;;;;;;;5046814;28;20044;-75
2024/01/10 11:45:31;;;;;;;14.55;10.88;;;;;;;;;;5047631;28;20033;-75
2024/01/10 11:47:59;;;;;;;16.13;10.70;;;;;;;;;;5042992;28;20033;-74
2024/01/10 11:50:28;;;;;;;14.35;10.73;;;;;;;;;;5027339;28;20369;-75
2024/01/10 11:52:56;;;;;;;16.88;11.65;;;;;;;;;;5048954;28;20049;-76
2024/01/10 11:55:49;;;;;;;14.32;10.45;;;3.00;97.10;;;;;;5046928;28;20024;-74
2024/01/10 11:58:17;;;;;;;16.90;11.73;;;3.00;95.70;;;;;;5042085;28;20469;-75
2024/01/10 12:00:47;;;;;;;17.25;11.27;;;3.10;96.00;;;;;;5048654;28;20482;-74
2024/01/10 12:03:15;;;;;;;16.05;11.25;;;3.20;95.90;;;;;;5046881;28;20059;-74
2024/01/10 12:05:43;;;;;;;17.05;10.77;;;3.40;95.70;;;;;;5032610;28;20051;-75
2024/01/10 12:08:11;;;;;;;14.30;10.70;;;3.50;95.80;;;;;;5048192;28;20040;-74
2024/01/10 12:10:39;;;;;;;14.60;11.05;;;3.60;95.60;;;;;;5048738;28;20399;-75
2024/01/10 12:13:06;;;;;;;13.13;10.63;;;3.70;95.50;;;;;;5049954;28;20033;-76
2024/01/10 12:15:34;;;;;;;14.82;10.55;;;3.60;95.10;;;;;;5049224;28;20120;-76
2024/01/10 12:18:01;;;;;;;14.27;10.98;;;2.90;95.70;;;;;;5032322;28;20098;-75
2024/01/10 12:20:28;;;;;;;14.40;10.40;;;3.10;95.90;;;;;;5048745;28;20083;-76
2024/01/10 12:22:56;;;;;;;14.02;10.32;;;3.20;95.70;;;;;;5050937;28;20408;-75
2024/01/10 12:25:23;;;;;;;14.57;9.65;;;3.00;95.50;;;;;;5050453;28;20440;-75
2024/01/10 12:27:51;;;;;;;16.85;10.18;;;2.80;95.80;;;;;;5034791;28;20037;-78
2024/01/10 12:30:18;;;;;;;13.10;9.75;;;2.70;95.80;;;;;;5028744;28;20048;-76
2024/01/10 12:32:49;;;;;;;14.68;10.13;;;2.70;96.20;;;;;;5048075;28;20045;-74
2024/01/10 12:35:19;;;;;;;14.20;10.30;;;3.00;96.00;;;;;;5049944;28;20108;-77
2024/01/10 12:37:56;;;;;;;14.85;9.95;;;3.30;95.70;;;;;;5051990;28;20037;-77
2024/01/10 12:40:24;;;;;;;12.35;9.45;;;3.00;95.30;;;;;;5050190;28;20052;-77
2024/01/10 12:43:03;;;;;;;12.70;8.93;;;2.80;95.40;;;;;;5048801;28;20091;-77
2024/01/10 12:45:30;;;;;;;10.50;8.65;;;2.90;95.20;;;;;;5040070;28;20346;-77
2024/01/10 12:47:57;;;;;;;12.85;8.98;;;3.00;95.50;;;;;;5047798;28;20091;-76
2024/01/10 12:50:25;;;;;;;11.80;8.70;;;3.10;95.20;;;;;;5044625;28;20033;-76
2024/01/10 12:52:53;;;;;;;14.43;9.40;;;3.30;95.10;;;;;;5046763;28;20048;-76
2024/01/10 12:55:21;;;;;;;10.85;8.93;;;3.40;95.00;;;;;;5048839;28;20037;-75
2024/01/10 12:57:49;;;;;;;12.80;9.32;;;3.40;95.00;;;;;;5045566;28;20036;-76
2024/01/10 13:00:17;;;;;;;14.00;9.63;;;3.30;94.80;;;;;;5044613;28;20048;-74
2024/01/10 13:02:46;;;;;;;12.60;9.18;;;3.30;95.00;;;;;;5050462;28;20350;-75
2024/01/10 13:05:13;;;;;;;13.55;9.23;;;3.40;94.90;;;;;;5046701;28;20099;-76
2024/01/10 13:07:42;;;;;;;14.65;9.85;;;3.40;95.00;;;;;;5050748;28;20421;-75
2024/01/10 13:10:09;;;;;;;15.40;10.27;;;3.30;94.50;;;;;;5032079;28;20511;-74
2024/01/10 13:12:37;;;;;;;12.48;9.60;;;3.30;94.80;;;;;;5032512;28;20045;-75
2024/01/10 13:15:04;;;;;;;14.90;9.82;;;3.40;94.80;;;;;;5029370;28;20051;-76
2024/01/10 13:17:32;;;;;;;16.83;10.07;;;3.50;94.80;;;;;;5052524;28;20028;-74
2024/01/10 13:19:59;;;;;;;14.05;10.00;;;3.50;94.70;;;;;;5048931;28;20037;-75